Time;durP1;ratioP1;P1;durP2;ratioP2;P2;SDS_P1;SDS_P2;PMS_P1;PMS_P2;Temp;Humidity;BMP_temperature;BMP_pressure;BME280_temperature;BME280_humidity;BME280_pressure;Samples;Min_cycle;Max_cycle;Signal;HPM_P1;HPM_P2
2021/01/26 00:00:57;;;;;;;1.60;1.30;;;;;;;1.23;100.00;96967.36;1790150;80;20891;-79
2021/01/26 00:03:25;;;;;;;2.35;1.12;;;;;;;1.18;100.00;96977.53;1790255;79;20926;-79
2021/01/26 00:05:52;;;;;;;1.60;1.30;;;;;;;1.11;100.00;96979.94;1790180;80;21360;-76
2021/01/26 00:08:20;;;;;;;1.37;1.00;;;;;;;1.05;100.00;96975.23;1790241;80;21489;-76
2021/01/26 00:10:48;;;;;;;1.52;1.07;;;;;;;0.98;100.00;96987.06;1790190;80;20934;-78
2021/01/26 00:13:17;;;;;;;2.08;1.22;;;;;;;0.94;100.00;96996.36;1790152;79;20943;-76
2021/01/26 00:15:46;;;;;;;1.77;1.20;;;;;;;0.87;100.00;96989.27;1790203;80;20963;-76
2021/01/26 00:18:14;;;;;;;2.00;1.35;;;;;;;0.80;100.00;96976.78;1790244;80;22332;-76
2021/01/26 00:20:44;;;;;;;2.65;1.50;;;;;;;0.74;100.00;96981.30;1790036;80;21006;-77
2021/01/26 00:23:12;;;;;;;1.50;1.30;;;;;;;0.70;100.00;96987.08;1790123;80;20939;-77
2021/01/26 00:25:40;;;;;;;1.67;1.35;;;;;;;0.64;100.00;96991.27;1790181;80;20922;-81
2021/01/26 00:28:10;;;;;;;2.42;1.82;;;;;;;0.60;100.00;96963.86;1790229;80;20911;-79
2021/01/26 00:30:39;;;;;;;4.90;2.00;;;;;;;0.55;100.00;96995.08;1790215;80;21413;-78
2021/01/26 00:33:14;;;;;;;2.85;1.80;;;;;;;0.52;100.00;96985.70;1790235;80;21496;-77
2021/01/26 00:35:42;;;;;;;2.65;2.05;;;;;;;0.47;100.00;96989.89;1790199;80;20888;-82
2021/01/26 00:38:10;;;;;;;5.95;2.08;;;;;;;0.46;100.00;96996.40;1790172;80;20919;-83
2021/01/26 00:40:40;;;;;;;3.37;2.08;;;;;;;0.42;100.00;96996.78;1790169;80;21053;-82
2021/01/26 00:43:09;;;;;;;6.15;2.87;;;;;;;0.42;100.00;97009.48;1795151;80;22248;-82
2021/01/26 00:45:37;;;;;;;3.95;2.50;;;;;;;0.40;100.00;97004.39;1795971;80;20954;-80
2021/01/26 00:48:06;;;;;;;3.62;2.90;;;;;;;0.39;100.00;97008.75;1796044;80;21022;-79
2021/01/26 00:50:34;;;;;;;5.00;2.42;;;;;;;0.36;100.00;97008.81;1795992;80;21108;-82
2021/01/26 00:53:02;;;;;;;4.08;2.58;;;;;;;0.35;100.00;97008.58;1778093;80;21552;-84
2021/01/26 00:55:43;;;;;;;4.03;2.65;;;;;;;0.39;100.00;96995.25;1890220;76;23195;-81
2021/01/26 00:58:13;;;;;;;4.17;2.90;;;;;;;0.36;100.00;97018.27;1861084;77;20911;-82
2021/01/26 01:00:41;;;;;;;3.45;2.22;;;;;;;0.33;100.00;97015.63;1861099;77;21774;-78
2021/01/26 01:03:10;;;;;;;3.30;2.42;;;;;;;0.30;100.00;97018.95;1860547;77;20931;-80
2021/01/26 01:05:38;;;;;;;4.55;3.05;;;;;;;0.28;100.00;97019.81;1861073;77;20967;-80
2021/01/26 01:08:06;;;;;;;4.70;2.90;;;;;;;0.27;100.00;97014.73;1861106;77;21133;-80
2021/01/26 01:10:36;;;;;;;3.27;2.27;;;;;;;0.26;100.00;97043.61;1861189;77;20998;-80
2021/01/26 01:13:05;;;;;;;3.62;2.45;;;;;;;0.25;100.00;97053.37;1861818;77;22629;-78
2021/01/26 01:15:34;;;;;;;4.08;2.25;;;;;;;0.24;100.00;97043.68;1861027;77;20943;-78
2021/01/26 01:18:01;;;;;;;8.20;2.80;;;;;;;0.22;100.00;97062.88;1861068;77;20904;-78
2021/01/26 01:20:29;;;;;;;4.17;2.45;;;;;;;0.20;100.00;97070.48;1861018;77;20912;-78
2021/01/26 01:22:57;;;;;;;4.47;2.45;;;;;;;0.17;100.00;97077.05;1849615;77;20998;-83
2021/01/26 01:25:24;;;;;;;4.37;2.77;;;;;;;0.11;100.00;97072.88;1827285;78;21119;-80
2021/01/26 01:27:52;;;;;;;4.37;2.83;;;;;;;0.06;100.00;97081.89;1827368;78;21485;-83
2021/01/26 01:30:29;;;;;;;4.97;3.02;;;;;;;0.00;100.00;97085.27;1827297;78;20923;-85
2021/01/26 01:32:57;;;;;;;7.90;3.08;;;;;;;-0.03;100.00;97086.47;1827324;78;21132;-76
2021/01/26 01:35:24;;;;;;;4.37;2.90;;;;;;;-0.06;100.00;97097.86;1827365;78;21046;-78
2021/01/26 01:37:52;;;;;;;5.12;3.00;;;;;;;-0.08;100.00;97111.66;1827234;78;21188;-77
2021/01/26 01:40:27;;;;;;;7.10;3.85;;;;;;;-0.11;100.00;97120.91;1827321;78;21497;-76
2021/01/26 01:42:54;;;;;;;6.95;3.60;;;;;;;-0.12;100.00;97117.41;1827405;78;20991;-78
2021/01/26 01:45:23;;;;;;;6.20;3.62;;;;;;;-0.13;100.00;97124.45;1827282;78;20900;-79
2021/01/26 01:47:58;;;;;;;5.78;3.60;;;;;;;-0.12;100.00;97134.94;1827346;78;21470;-79
2021/01/26 01:50:48;;;;;;;5.22;3.35;;;;;;;-0.11;100.00;97150.57;1800968;78;21383;-76
2021/01/26 01:53:31;;;;;;;9.83;4.12;;;;;;;-0.10;100.00;97169.70;1827246;78;21031;-77
2021/01/26 01:56:12;;;;;;;7.15;4.25;;;;;;;-0.10;100.00;97171.84;1791058;80;20928;-74
2021/01/26 01:58:44;;;;;;;6.97;4.20;;;;;;;-0.09;100.00;97189.62;1794163;80;20951;-73
2021/01/26 02:01:15;;;;;;;8.08;4.45;;;;;;;-0.10;100.00;97194.77;1792158;80;21060;-74
2021/01/26 02:03:51;;;;;;;9.40;5.78;;;;;;;-0.09;100.00;97206.35;1730585;81;21211;-75
2021/01/26 02:06:19;;;;;;;10.28;5.78;;;;;;;-0.09;100.00;97194.22;1756207;81;21539;-74
2021/01/26 02:09:08;;;;;;;11.83;7.08;;;;;;;-0.10;100.00;97202.06;1756321;81;20994;-73
2021/01/26 02:11:35;;;;;;;10.25;6.50;;;;;;;-0.11;100.00;97209.90;1755960;81;20961;-73
2021/01/26 02:14:04;;;;;;;12.93;6.97;;;;;;;-0.12;100.00;97206.41;1756311;81;20946;-75
2021/01/26 02:16:43;;;;;;;11.90;6.42;;;;;;;-0.12;100.00;97219.09;1756421;81;22715;-75
2021/01/26 02:19:31;;;;;;;11.35;7.60;;;;;;;-0.13;100.00;97222.89;1756419;81;21536;-74
2021/01/26 02:22:31;;;;;;;14.20;7.90;;;;;;;-0.15;100.00;97211.06;1756486;81;21599;-73
2021/01/26 02:25:25;;;;;;;12.90;7.47;;;;;;;-0.15;100.00;97215.66;1755551;81;20958;-76
2021/01/26 02:28:19;;;;;;;14.83;8.70;;;;;;;-0.18;100.00;97217.05;1756347;81;20962;-75
2021/01/26 02:31:32;;;;;;;13.18;7.60;;;;;;;-0.18;100.00;97231.09;1756470;81;22251;-76
2021/01/26 02:34:18;;;;;;;;;;;;;;;-0.18;100.00;97243.22;1758787;81;20946;-77
2021/01/26 02:37:11;;;;;;;15.45;8.10;;;;;;;-0.18;100.00;97256.16;1755720;81;20496;-74
2021/01/26 02:39:52;;;;;;;14.73;8.60;;;;;;;-0.17;100.00;97258.30;1756313;81;20945;-75
2021/01/26 02:42:27;;;;;;;15.95;9.18;;;;;;;-0.18;100.00;97262.09;1756343;81;21053;-76
2021/01/26 02:45:18;;;;;;;17.10;9.10;;;;;;;-0.16;100.00;97266.64;1756297;81;22697;-77
2021/01/26 02:48:10;;;;;;;13.05;7.83;;;;;;;-0.16;100.00;97281.47;1756286;81;20974;-75
2021/01/26 02:51:04;;;;;;;14.20;7.95;;;;;;;-0.16;100.00;97263.39;1761997;81;21607;-76
2021/01/26 02:54:01;;;;;;;16.52;9.85;;;;;;;-0.16;100.00;97263.39;1793559;80;20923;-77
2021/01/26 02:56:37;;;;;;;18.23;10.50;;;;;;;-0.15;99.99;97264.99;1793606;80;20983;-76
2021/01/26 02:59:25;;;;;;;17.12;9.65;;;;;;;-0.15;99.79;97264.99;1793177;80;22141;-77
2021/01/26 03:02:01;;;;;;;18.10;9.50;;;;;;;-0.16;99.85;97270.14;1791380;80;21507;-76
2021/01/26 03:04:40;;;;;;;20.57;11.40;;;;;;;-0.17;99.57;97277.98;1755846;81;21579;-77
2021/01/26 03:07:07;;;;;;;17.10;10.50;;;;;;;-0.16;99.49;97273.38;1756328;81;20986;-77
2021/01/26 03:09:42;;;;;;;17.75;10.43;;;;;;;-0.17;99.22;97272.58;1756293;81;21053;-75
2021/01/26 03:12:21;;;;;;;19.90;11.25;;;;;;;-0.16;99.10;97278.78;1756434;81;22145;-76
2021/01/26 03:15:08;;;;;;;19.35;10.68;;;;;;;-0.14;99.23;97296.80;1732430;81;21042;-77
2021/01/26 03:17:44;;;;;;;22.15;11.38;;;;;;;-0.15;98.78;97293.86;1756272;81;21136;-76
2021/01/26 03:20:22;;;;;;;22.45;11.40;;;;;;;-0.14;98.47;97292.20;1756405;81;21626;-75
2021/01/26 03:22:53;;;;;;;22.05;11.95;;;;;;;-0.15;98.08;97310.84;1756283;81;20946;-75
2021/01/26 03:25:23;;;;;;;19.50;11.28;;;;;;;-0.15;98.08;97296.00;1756402;81;22197;-75
2021/01/26 03:27:59;;;;;;;21.07;12.37;;;;;;;-0.14;97.53;97301.65;1756362;81;21081;-76
2021/01/26 03:30:34;;;;;;;21.70;11.55;;;;;;;-0.13;97.53;97303.80;1731792;81;21567;-76
2021/01/26 03:33:10;;;;;;;21.12;10.95;;;;;;;-0.13;97.12;97298.40;1756300;81;20950;-74
2021/01/26 03:35:39;;;;;;;19.35;12.07;;;;;;;-0.13;96.59;97310.53;1756293;81;21556;-74
2021/01/26 03:38:11;;;;;;;20.52;11.70;;;;;;;-0.12;96.24;97316.98;1756283;81;21203;-74
2021/01/26 03:40:38;;;;;;;20.50;11.18;;;;;;;-0.13;96.54;97322.12;1731181;81;20968;-75
2021/01/26 03:43:06;;;;;;;19.95;10.55;;;;;;;-0.12;96.40;97329.66;1756328;81;21555;-76
2021/01/26 03:45:35;;;;;;;16.10;9.53;;;;;;;-0.12;96.03;97329.66;1756340;81;21195;-75
2021/01/26 03:48:41;;;;;;;20.57;11.40;;;;;;;-0.12;95.65;97337.20;1756293;81;20938;-76
2021/01/26 03:52:07;;;;;;;18.75;10.43;;;;;;;-0.14;95.07;97348.04;1666705;85;21477;-77
2021/01/26 03:54:43;;;;;;;17.40;8.83;;;;;;;-0.12;95.07;97346.64;1717272;83;21325;-77
2021/01/26 03:57:40;;;;;;;17.73;10.20;;;;;;;-0.13;94.66;97351.79;1760131;81;21484;-76
2021/01/26 04:00:28;;;;;;;18.52;9.90;;;;;;;-0.10;94.08;97353.89;1765991;81;20984;-77
2021/01/26 04:03:47;;;;;;;17.50;9.18;;;;;;;-0.10;94.39;97354.44;1793760;80;21007;-77
2021/01/26 04:06:37;;;;;;;16.27;9.55;;;;;;;-0.10;94.22;97367.92;1793806;79;21363;-78
2021/01/26 04:09:10;;;;;;;15.05;9.53;;;;;;;-0.09;94.18;97359.53;1793756;80;21300;-77
2021/01/26 04:12:04;;;;;;;14.58;9.35;;;;;;;-0.07;94.06;97367.33;1793828;80;21514;-77
2021/01/26 04:14:52;;;;;;;17.35;9.38;;;;;;;-0.08;93.94;97374.62;1793793;80;20920;-77
2021/01/26 04:17:30;;;;;;;15.28;8.65;;;;;;;-0.08;94.00;97377.31;1793840;80;20944;-78
2021/01/26 04:20:05;;;;;;;15.93;9.20;;;;;;;-0.08;93.37;97375.97;1793926;80;21290;-77
2021/01/26 04:22:33;;;;;;;16.42;8.20;;;;;;;-0.05;93.20;97394.80;1793777;78;21690;-77
2021/01/26 04:25:01;;;;;;;16.42;9.83;;;;;;;-0.05;93.13;97414.48;1793765;80;20943;-76
2021/01/26 04:27:29;;;;;;;17.50;10.08;;;;;;;-0.03;92.62;97407.44;1793773;80;21109;-76
2021/01/26 04:29:56;;;;;;;14.87;8.65;;;;;;;-0.03;92.48;97409.58;1793895;80;21525;-77
2021/01/26 04:32:24;;;;;;;15.63;9.23;;;;;;;-0.01;92.57;97407.39;1793070;80;21203;-77
2021/01/26 04:34:51;;;;;;;14.53;8.43;;;;;;;0.02;92.54;97409.20;1793635;80;20935;-76
2021/01/26 04:37:19;;;;;;;14.85;9.20;;;;;;;0.02;92.37;97406.51;1793760;80;20955;-75
2021/01/26 04:39:46;;;;;;;13.80;8.25;;;;;;;0.04;92.26;97415.10;1793847;80;20987;-77
2021/01/26 04:42:22;;;;;;;13.35;7.87;;;;;;;0.03;91.89;97420.25;1793795;80;20916;-77
2021/01/26 04:45:07;;;;;;;14.65;7.95;;;;;;;0.04;91.71;97424.00;1766947;80;21988;-79
2021/01/26 04:47:50;;;;;;;15.10;7.47;;;;;;;0.05;91.68;97427.49;1775910;80;21636;-78
2021/01/26 04:50:48;;;;;;;14.83;8.20;;;;;;;0.05;91.31;97416.16;1792141;80;20987;-77
2021/01/26 04:53:56;;;;;;;12.33;6.90;;;;;;;0.05;90.73;97430.19;1792112;80;20960;-77
2021/01/26 04:56:44;;;;;;;11.88;7.22;;;;;;;0.07;90.27;97429.34;1785818;80;21481;-77
2021/01/26 04:59:35;;;;;;;12.58;7.17;;;;;;;0.08;90.75;97434.44;1783509;80;21475;-77
2021/01/26 05:02:26;;;;;;;13.28;7.72;;;;;;;0.08;90.92;97434.44;1783465;80;20940;-78
2021/01/26 05:05:02;;;;;;;14.65;7.53;;;;;;;0.07;90.60;97446.88;1783529;80;20889;-78
2021/01/26 05:07:34;;;;;;;13.53;7.67;;;;;;;0.07;90.65;97457.67;1783368;80;20940;-77
2021/01/26 05:10:35;;;;;;;13.25;7.55;;;;;;;0.08;90.30;97446.58;1783523;80;20945;-79
2021/01/26 05:13:17;;;;;;;12.40;6.70;;;;;;;0.08;90.07;97444.44;1777246;80;21279;-75
2021/01/26 05:15:47;;;;;;;10.90;6.55;;;;;;;0.08;90.08;97452.52;1785177;79;20943;-74
2021/01/26 05:18:53;;;;;;;12.88;7.78;;;;;;;0.09;89.50;97449.53;1783998;80;21090;-75
2021/01/26 05:21:48;;;;;;;12.23;6.00;;;;;;;0.10;89.76;97451.12;1755313;80;21510;-76
2021/01/26 05:24:41;;;;;;;11.53;6.60;;;;;;;0.09;88.84;97462.22;1784883;80;21022;-75
2021/01/26 05:27:09;;;;;;;12.80;5.67;;;;;;;0.10;88.91;97459.77;1768713;80;21258;-76
2021/01/26 05:29:36;;;;;;;11.43;6.60;;;;;;;0.11;88.90;97457.33;1764610;81;21579;-75
2021/01/26 05:32:05;;;;;;;13.32;6.45;;;;;;;0.10;88.79;97471.91;1764712;81;21140;-75
2021/01/26 05:34:34;;;;;;;10.75;6.12;;;;;;;0.11;88.98;97474.86;1764950;81;21081;-74
2021/01/26 05:37:09;;;;;;;10.55;6.00;;;;;;;0.11;87.99;97470.81;1765000;81;21647;-74
2021/01/26 05:40:05;;;;;;;10.60;5.95;;;;;;;0.12;87.71;97466.47;1764713;81;21214;-74
2021/01/26 05:42:33;;;;;;;11.75;6.08;;;;;;;0.12;87.69;97474.56;1764115;81;21223;-75
2021/01/26 05:45:20;;;;;;;10.75;5.62;;;;;;;0.13;87.29;97480.77;1764182;81;21631;-75
2021/01/26 05:47:48;;;;;;;11.75;6.12;;;;;;;0.12;87.58;97481.31;1764574;81;21576;-74
2021/01/26 05:50:26;;;;;;;10.23;6.37;;;;;;;0.12;87.70;97484.01;1710794;81;21139;-74
2021/01/26 05:52:54;;;;;;;10.60;6.00;;;;;;;0.12;87.75;97492.10;1764555;81;21208;-75
2021/01/26 05:55:26;;;;;;;13.60;6.17;;;;;;;0.13;87.83;97502.34;1764488;81;21701;-75
2021/01/26 05:57:53;;;;;;;11.60;7.05;;;;;;;0.12;88.13;97499.39;1765209;81;21065;-75
2021/01/26 06:00:27;;;;;;;8.98;5.58;;;;;;;0.13;87.91;97506.39;1764899;81;21049;-86
2021/01/26 06:03:18;;;;;;;11.43;5.90;;;;;;;0.13;87.96;97509.09;1764905;81;21187;-75
2021/01/26 06:06:10;;;;;;;12.58;6.42;;;;;;;0.14;88.12;97516.09;1780312;80;21786;-73
2021/01/26 06:08:55;;;;;;;12.88;5.87;;;;;;;0.15;88.15;97513.64;1785951;80;20995;-81
2021/01/26 06:11:30;;;;;;;11.22;6.35;;;;;;;0.13;88.08;97511.24;1787735;78;21514;-85
2021/01/26 06:14:14;;;;;;;11.53;6.37;;;;;;;0.14;88.03;97541.17;1784127;80;21146;-85
2021/01/26 06:16:42;;;;;;;13.18;6.62;;;;;;;0.15;88.01;97544.13;1785229;80;21038;-88
2021/01/26 06:19:14;;;;;;;11.12;5.97;;;;;;;0.17;87.75;97541.93;1785282;80;21084;-87
2021/01/26 06:21:52;;;;;;;11.22;6.08;;;;;;;0.18;87.97;97549.47;1785334;80;20896;-82
2021/01/26 06:24:27;;;;;;;9.43;4.97;;;;;;;0.18;88.13;97554.33;1785401;79;21571;-89
2021/01/26 06:27:21;;;;;;;10.32;4.87;;;;;;;0.20;88.37;97576.97;1785650;80;21503;-84
2021/01/26 06:30:18;;;;;;;10.00;4.80;;;;;;;0.21;87.98;97567.77;1785238;80;21492;-79
2021/01/26 06:33:12;;;;;;;9.80;5.15;;;;;;;0.21;87.73;97586.66;1785282;80;22291;-82
2021/01/26 06:35:55;;;;;;;8.20;5.25;;;;;;;0.21;87.42;97594.20;1784908;80;21109;-82
2021/01/26 06:39:03;;;;;;;10.08;5.30;;;;;;;0.21;87.43;97603.66;1785493;80;21487;-81
2021/01/26 06:41:51;;;;;;;9.03;5.53;;;;;;;0.22;87.32;97600.41;1784832;80;21051;-85
2021/01/26 06:44:54;;;;;;;8.50;5.05;;;;;;;0.21;87.32;97603.66;1740426;80;21469;-84
2021/01/26 06:47:55;;;;;;;;;;;;;;;0.23;87.23;97616.84;1786192;80;21224;-83
2021/01/26 06:50:31;;;;;;;10.28;4.83;;;;;;;0.22;86.95;97612.55;1688921;84;20261;-84
2021/01/26 06:53:05;;;;;;;6.85;4.80;;;;;;;0.22;86.34;97632.79;1799722;78;21138;-84
2021/01/26 06:56:04;;;;;;;5.95;4.28;;;;;;;0.24;86.24;97629.25;1824714;78;21055;-87
2021/01/26 06:59:14;;;;;;;9.88;4.45;;;;;;;0.24;86.11;97631.40;1828165;78;20931;-84
2021/01/26 07:02:15;;;;;;;10.43;4.95;;;;;;;0.25;86.27;97645.14;1759493;80;21233;-87
2021/01/26 07:05:34;;;;;;;8.68;4.72;;;;;;;0.31;85.64;97633.72;1879675;75;22759;-87
2021/01/26 07:08:31;;;;;;;13.00;6.35;;;;;;;0.28;85.87;97639.70;1819386;78;21457;-89
2021/01/26 07:11:25;;;;;;;25.40;8.70;;;;;;;0.29;85.58;97652.11;1819494;78;21204;-88
2021/01/26 07:14:11;;;;;;;13.93;6.33;;;;;;;0.30;85.65;97682.84;1819238;78;21017;-84
2021/01/26 07:16:57;;;;;;;9.70;5.03;;;;;;;0.30;85.25;97661.80;1798609;77;21496;-83
2021/01/26 07:19:57;;;;;;;11.38;5.87;;;;;;;0.32;85.09;97663.11;1844133;77;20988;-80
2021/01/26 07:23:05;;;;;;;9.68;5.08;;;;;;;0.33;84.92;97678.21;1849601;77;21009;-80
2021/01/26 07:25:56;;;;;;;8.45;4.45;;;;;;;0.35;84.60;97664.97;1823849;77;21365;-83
2021/01/26 07:29:16;;;;;;;8.00;4.72;;;;;;;0.36;83.94;97686.81;1848201;77;21037;-84
2021/01/26 07:31:52;;;;;;;10.25;4.20;;;;;;;0.38;84.19;97680.58;1848723;77;21045;-87
2021/01/26 07:34:31;;;;;;;5.75;3.98;;;;;;;0.39;84.34;97680.28;1807317;77;21174;-86
2021/01/26 07:37:22;;;;;;;5.72;3.58;;;;;;;0.40;84.30;97685.94;1806072;79;21145;-79
2021/01/26 07:40:09;;;;;;;5.25;3.47;;;;;;;0.40;84.36;97683.23;1806223;79;21018;-84
2021/01/26 07:42:51;;;;;;;7.70;4.17;;;;;;;0.41;84.48;97695.64;1805752;79;21192;-83
2021/01/26 07:45:27;;;;;;;4.60;2.92;;;;;;;0.42;84.04;97708.59;1745866;77;28294;-78
2021/01/26 07:48:09;;;;;;;5.85;3.45;;;;;;;0.42;83.22;97717.48;1841511;77;21159;-80
2021/01/26 07:50:46;;;;;;;8.58;4.45;;;;;;;0.42;83.11;97708.59;1848053;77;21108;-77
2021/01/26 07:53:37;;;;;;;7.20;3.77;;;;;;;0.43;83.46;97701.55;1848052;77;21486;-86
2021/01/26 07:56:16;;;;;;;8.70;4.42;;;;;;;0.42;82.95;97743.13;1848329;77;21184;-88
2021/01/26 07:58:44;;;;;;;4.92;2.92;;;;;;;0.43;82.93;97716.39;1845155;77;21005;-88
2021/01/26 08:01:13;;;;;;;6.05;3.80;;;;;;;0.44;82.11;97726.64;1847707;77;21454;-80
2021/01/26 08:03:41;;;;;;;4.20;2.90;;;;;;;0.44;82.34;97722.05;1805740;77;21646;-84
2021/01/26 08:06:42;;;;;;;8.30;2.90;;;;;;;0.45;82.58;97725.00;1788709;80;21346;-78
2021/01/26 08:09:18;;;;;;;5.37;3.30;;;;;;;0.45;82.56;97735.00;1788836;80;21545;-84
2021/01/26 08:12:11;;;;;;;5.08;3.12;;;;;;;0.44;81.59;97750.39;1788369;78;21182;-85
2021/01/26 08:14:51;;;;;;;5.80;3.22;;;;;;;0.44;82.23;97747.69;1762377;80;21146;-82
2021/01/26 08:17:33;;;;;;;9.68;3.00;;;;;;;0.43;81.69;97751.48;1788247;79;21004;-88
2021/01/26 08:20:04;;;;;;;;;;;;;;;0.43;81.70;97757.44;1790824;79;21142;-88
2021/01/26 08:22:45;;;;;;;4.70;2.58;;;;;;;0.43;81.47;97781.73;1781884;79;20224;-86
2021/01/26 08:25:36;;;;;;;4.12;2.67;;;;;;;0.42;81.38;97780.12;1796893;79;21122;-82
2021/01/26 08:28:11;;;;;;;5.12;2.85;;;;;;;0.42;81.33;97779.58;1798217;79;21131;-85
2021/01/26 08:30:50;;;;;;;5.15;3.00;;;;;;;0.40;81.80;97781.77;1798432;79;21143;-84
2021/01/26 08:33:21;;;;;;;9.00;3.77;;;;;;;0.42;81.99;97795.77;1798465;79;22062;-81
2021/01/26 08:36:26;;;;;;;5.40;2.90;;;;;;;0.43;81.84;97793.33;1798544;79;21079;-80
2021/01/26 08:39:17;;;;;;;5.42;3.12;;;;;;;0.43;81.31;97802.78;1800511;79;21150;-81
2021/01/26 08:41:49;;;;;;;6.40;3.35;;;;;;;0.43;80.72;97812.23;1797345;79;21911;-82
2021/01/26 08:44:24;;;;;;;6.20;3.30;;;;;;;0.43;81.28;97808.72;1798931;79;21538;-80
2021/01/26 08:46:52;;;;;;;4.55;3.10;;;;;;;0.44;81.14;97827.88;1799534;79;21199;-79
2021/01/26 08:49:34;;;;;;;4.75;2.58;;;;;;;0.44;80.99;97830.03;1799449;79;21197;-78
2021/01/26 08:52:25;;;;;;;6.67;2.95;;;;;;;0.45;81.10;97831.64;1799517;79;20937;-79
2021/01/26 08:54:53;;;;;;;8.28;4.85;;;;;;;0.45;81.02;97835.69;1799474;79;21028;-79
2021/01/26 08:57:34;;;;;;;5.30;3.05;;;;;;;0.46;81.38;97833.79;1799443;79;21008;-78
2021/01/26 09:00:17;;;;;;;7.40;4.55;;;;;;;0.46;81.41;97842.69;1784429;79;21052;-80
2021/01/26 09:02:49;;;;;;;3.83;2.62;;;;;;;0.46;80.92;97854.84;1798921;79;21597;-81
2021/01/26 09:05:47;;;;;;;6.83;3.22;;;;;;;0.48;80.75;97853.20;1839739;77;20962;-86
2021/01/26 09:08:44;;;;;;;5.90;3.17;;;;;;;0.48;81.31;97852.66;1839791;77;21014;-84
2021/01/26 09:11:38;;;;;;;8.53;4.40;;;;;;;0.48;81.52;97854.55;1808940;78;21453;-85
2021/01/26 09:14:40;;;;;;;5.17;3.22;;;;;;;0.48;81.95;97859.95;1811060;79;21696;-84
2021/01/26 09:17:27;;;;;;;5.70;2.92;;;;;;;0.50;81.70;97872.06;1811343;78;25116;-81
2021/01/26 09:20:18;;;;;;;5.28;3.25;;;;;;;0.50;81.84;97873.41;1811136;79;20966;-81
2021/01/26 09:22:45;;;;;;;6.87;3.60;;;;;;;0.49;81.66;97881.26;1810945;78;21014;-84
2021/01/26 09:25:20;;;;;;;6.78;3.47;;;;;;;0.50;81.39;97869.37;1748829;79;21014;-82
2021/01/26 09:28:01;;;;;;;4.95;3.27;;;;;;;0.52;81.58;97897.42;1837848;77;21367;-80
2021/01/26 09:30:29;;;;;;;6.08;3.52;;;;;;;0.54;81.64;97876.34;1844319;77;21060;-79
2021/01/26 09:33:21;;;;;;;4.15;2.75;;;;;;;0.54;81.51;97900.09;1835345;77;20934;-77
2021/01/26 09:35:53;;;;;;;7.33;3.17;;;;;;;0.55;81.21;97893.59;1844160;77;20930;-78
2021/01/26 09:38:45;;;;;;;5.08;3.15;;;;;;;0.56;81.07;97891.16;1841053;77;21481;-80
2021/01/26 09:41:29;;;;;;;8.90;2.97;;;;;;;0.58;81.24;97895.69;1811265;79;22168;-80
2021/01/26 09:44:12;;;;;;;6.80;2.90;;;;;;;0.60;81.32;97912.41;1810962;79;21115;-83
2021/01/26 09:46:46;;;;;;;5.97;3.55;;;;;;;0.61;81.12;97892.41;1786876;79;20923;-85
2021/01/26 09:49:27;;;;;;;7.42;3.77;;;;;;;0.62;80.80;97915.62;1811173;78;21017;-84
2021/01/26 09:52:09;;;;;;;6.03;3.22;;;;;;;0.63;80.97;97915.88;1811112;78;21068;-78
2021/01/26 09:54:39;;;;;;;6.28;3.67;;;;;;;0.64;80.52;97913.42;1788308;79;21200;-77
2021/01/26 09:57:10;;;;;;;4.47;3.00;;;;;;;0.67;80.64;97905.30;1811042;79;21005;-79
2021/01/26 09:59:39;;;;;;;5.62;2.87;;;;;;;0.69;80.75;97908.50;1787579;79;20949;-81
2021/01/26 10:02:10;;;;;;;10.43;5.83;;;;;;;0.73;80.14;97922.23;1811085;79;21009;-78
2021/01/26 10:04:39;;;;;;;7.78;4.47;;;;;;;0.75;80.33;97916.80;1815065;78;21029;-78
2021/01/26 10:07:14;;;;;;;9.63;5.20;;;;;;;0.77;79.89;97915.16;1816716;78;21347;-77
2021/01/26 10:09:42;;;;;;;5.33;3.55;;;;;;;0.80;79.84;97928.87;1792113;78;20945;-76
2021/01/26 10:12:28;;;;;;;5.85;3.90;;;;;;;0.85;79.77;97908.55;1792048;78;20894;-77
2021/01/26 10:15:28;;;;;;;6.12;3.58;;;;;;;0.94;79.11;97919.50;1819043;78;20946;-76
2021/01/26 10:18:13;;;;;;;5.20;3.02;;;;;;;1.02;79.06;97937.77;1818334;78;21542;-76
2021/01/26 10:20:55;;;;;;;8.58;3.60;;;;;;;1.07;78.57;97940.39;1819070;78;21150;-77
2021/01/26 10:23:35;;;;;;;4.53;3.17;;;;;;;1.09;78.34;97948.20;1818579;78;21164;-78
2021/01/26 10:26:24;;;;;;;5.03;3.17;;;;;;;1.11;78.90;97937.91;1819120;78;21425;-76
2021/01/26 10:29:22;;;;;;;6.05;3.12;;;;;;;1.12;77.94;97939.52;1819113;78;21468;-77
2021/01/26 10:31:55;;;;;;;8.63;3.95;;;;;;;1.10;77.38;97948.46;1791866;78;21040;-77
2021/01/26 10:34:37;;;;;;;11.03;4.45;;;;;;;1.07;77.93;97956.61;1819196;78;22124;-77
2021/01/26 10:37:20;;;;;;;5.42;2.98;;;;;;;1.06;77.64;97975.27;1819026;78;20974;-77
2021/01/26 10:40:21;;;;;;;8.65;4.45;;;;;;;1.05;77.63;97975.56;1819050;78;21073;-76
2021/01/26 10:43:06;;;;;;;4.85;2.92;;;;;;;1.06;77.81;97986.08;1814000;78;20933;-75
2021/01/26 10:45:52;;;;;;;4.92;2.80;;;;;;;1.07;77.24;97983.63;1819074;78;20998;-77
2021/01/26 10:48:36;;;;;;;4.78;2.80;;;;;;;1.07;77.78;97974.17;1819078;78;21428;-76
2021/01/26 10:51:15;;;;;;;6.33;3.10;;;;;;;1.10;77.54;97961.98;1819009;78;21009;-77
2021/01/26 10:53:45;;;;;;;5.72;3.45;;;;;;;1.11;77.51;97967.09;1819073;78;20950;-77
2021/01/26 10:56:13;;;;;;;6.22;3.25;;;;;;;1.12;77.60;97980.05;1819093;78;21028;-75
2021/01/26 10:58:45;;;;;;;5.05;3.08;;;;;;;1.14;77.23;97977.86;1819069;78;21052;-76
2021/01/26 11:01:15;;;;;;;6.10;3.35;;;;;;;1.17;77.11;97982.66;1819383;78;22264;-76
2021/01/26 11:03:43;;;;;;;5.35;2.87;;;;;;;1.19;76.62;97996.68;1790306;79;21622;-76
2021/01/26 11:06:11;;;;;;;4.95;2.92;;;;;;;1.19;76.34;98001.54;1819341;78;20890;-76
2021/01/26 11:08:39;;;;;;;3.67;2.50;;;;;;;1.19;76.40;98001.54;1819291;78;20942;-76
2021/01/26 11:11:07;;;;;;;9.18;3.60;;;;;;;1.16;76.04;98005.38;1794564;78;20926;-75
2021/01/26 11:13:34;;;;;;;5.22;3.22;;;;;;;1.15;77.11;97992.44;1819265;78;21200;-76
2021/01/26 11:16:03;;;;;;;4.42;2.92;;;;;;;1.19;76.73;98012.35;1819313;78;20930;-77
2021/01/26 11:18:31;;;;;;;5.30;2.90;;;;;;;1.21;76.18;98016.11;1819346;78;20883;-75
2021/01/26 11:21:01;;;;;;;5.33;2.72;;;;;;;1.21;76.55;98007.45;1819285;78;20934;-75
2021/01/26 11:23:28;;;;;;;4.17;2.80;;;;;;;1.23;75.95;98032.84;1819354;78;21571;-77
2021/01/26 11:25:56;;;;;;;4.25;2.85;;;;;;;1.23;75.72;98020.68;1819442;78;22277;-76
2021/01/26 11:28:24;;;;;;;5.22;2.77;;;;;;;1.20;75.72;98013.96;1819225;78;20942;-77
2021/01/26 11:30:51;;;;;;;7.30;2.80;;;;;;;1.18;76.00;98036.42;1819280;78;20934;-77
2021/01/26 11:33:19;;;;;;;6.40;3.10;;;;;;;1.17;76.31;98017.25;1819361;78;21068;-76
2021/01/26 11:35:46;;;;;;;8.23;3.62;;;;;;;1.21;76.66;98017.47;1819258;78;21131;-76
2021/01/26 11:38:14;;;;;;;5.53;3.10;;;;;;;1.21;75.91;98012.06;1819365;78;21383;-76
2021/01/26 11:40:41;;;;;;;5.53;3.33;;;;;;;1.21;75.44;98026.38;1819362;78;21076;-76
2021/01/26 11:43:09;;;;;;;8.15;3.55;;;;;;;1.21;75.87;98027.73;1819304;78;20926;-75
2021/01/26 11:45:38;;;;;;;7.62;4.03;;;;;;;1.22;75.49;98042.86;1819232;78;21136;-76
2021/01/26 11:48:07;;;;;;;10.25;5.00;;;;;;;1.21;75.80;98043.95;1819419;78;21116;-76
2021/01/26 11:50:36;;;;;;;17.40;6.10;;;;;;;1.21;76.21;98043.95;1819459;78;20930;-76
2021/01/26 11:53:06;;;;;;;11.55;4.90;;;;;;;1.21;76.22;98046.66;1819406;78;21143;-75
2021/01/26 11:55:34;;;;;;;6.40;3.10;;;;;;;1.20;76.17;98053.70;1819480;78;21006;-76
2021/01/26 11:58:02;;;;;;;14.75;4.95;;;;;;;1.17;76.04;98058.34;1819436;78;20930;-76
2021/01/26 12:00:32;;;;;;;5.90;3.33;;;;;;;1.13;76.23;98055.44;1819519;78;21052;-77
2021/01/26 12:03:01;;;;;;;5.42;3.33;;;;;;;1.09;75.77;98073.33;1819560;78;22217;-76
2021/01/26 12:05:31;;;;;;;8.40;3.87;;;;;;;1.08;76.15;98066.31;1817230;78;21068;-76
2021/01/26 12:07:59;;;;;;;6.30;3.17;;;;;;;1.07;76.28;98070.66;1816051;79;20934;-76
2021/01/26 12:10:26;;;;;;;8.63;3.55;;;;;;;1.06;76.82;98086.62;1816068;79;21116;-76
2021/01/26 12:12:55;;;;;;;11.12;4.00;;;;;;;1.04;76.67;98084.20;1816016;78;21100;-76
2021/01/26 12:15:26;;;;;;;4.70;3.08;;;;;;;1.02;76.52;98090.98;1815933;79;21432;-76
2021/01/26 12:17:54;;;;;;;7.80;3.92;;;;;;;1.03;76.97;98088.00;1816099;79;20989;-76
2021/01/26 12:20:22;;;;;;;6.92;4.28;;;;;;;1.04;76.87;98082.05;1815965;79;21048;-76
2021/01/26 12:22:49;;;;;;;8.08;3.85;;;;;;;1.05;76.89;98083.66;1816020;79;21448;-75
2021/01/26 12:25:18;;;;;;;7.47;4.25;;;;;;;1.06;77.12;98093.38;1815968;79;20986;-76
2021/01/26 12:27:45;;;;;;;9.88;4.90;;;;;;;1.07;76.94;98102.55;1815982;79;21373;-76